createdAt,value
2023-01-29T00:01:17.792Z,1.00
2023-01-29T00:04:21.582Z,1.01
2023-01-29T00:07:25.205Z,1.03
2023-01-29T00:10:28.887Z,1.01
2023-01-29T00:13:34.551Z,1.06
2023-01-29T00:16:39.641Z,1.02
2023-01-29T00:19:43.410Z,1.05
2023-01-29T00:22:47.150Z,1.01
2023-01-29T00:25:50.904Z,0.98
2023-01-29T00:28:54.822Z,0.99
2023-01-29T00:31:59.939Z,1.01
2023-01-29T00:35:03.867Z,1.02
2023-01-29T00:38:07.515Z,1.01
2023-01-29T00:41:31.445Z,1.00
2023-01-29T00:44:52.591Z,0.95
2023-01-29T00:47:57.557Z,0.96
2023-01-29T00:51:01.432Z,0.98
2023-01-29T00:54:06.783Z,1.01
2023-01-29T00:57:10.439Z,1.02
2023-01-29T01:00:18.404Z,1.02
2023-01-29T01:03:23.600Z,1.05
2023-01-29T01:06:27.225Z,1.05
2023-01-29T01:09:48.137Z,1.04
2023-01-29T01:12:59.179Z,1.03
2023-01-29T01:16:02.899Z,1.03
2023-01-29T01:19:07.984Z,1.13
2023-01-29T01:22:12.139Z,1.02
2023-01-29T01:25:15.861Z,0.99
2023-01-29T01:28:19.428Z,1.02
2023-01-29T01:31:23.160Z,1.06
2023-01-29T01:34:28.596Z,1.03
2023-01-29T01:37:32.253Z,1.00
2023-01-29T01:40:35.983Z,1.00
2023-01-29T01:43:54.643Z,0.99
2023-01-29T01:46:58.371Z,0.98
2023-01-29T01:50:10.708Z,1.01
2023-01-29T01:53:19.930Z,1.01
2023-01-29T01:56:38.611Z,1.00
2023-01-29T01:59:44.337Z,1.01
2023-01-29T02:03:07.217Z,1.02
2023-01-29T02:06:30.364Z,1.08
2023-01-29T02:09:41.299Z,1.06
2023-01-29T02:12:46.862Z,1.07
2023-01-29T02:15:50.532Z,1.05
2023-01-29T02:18:55.204Z,1.06
2023-01-29T02:22:55.253Z,1.07
2023-01-29T02:26:41.912Z,1.08
2023-01-29T02:30:00.911Z,1.03
2023-01-29T02:33:22.557Z,1.08
2023-01-29T02:36:39.287Z,1.10
2023-01-29T02:39:58.658Z,1.10
2023-01-29T02:43:17.244Z,1.09
2023-01-29T02:46:32.042Z,1.08
2023-01-29T02:49:47.072Z,1.10
2023-01-29T02:53:03.384Z,1.09
2023-01-29T02:56:16.652Z,1.10
2023-01-29T02:59:26.721Z,1.08
2023-01-29T03:02:40.160Z,1.10
2023-01-29T03:05:58.826Z,1.10
2023-01-29T03:09:08.244Z,1.04
2023-01-29T03:12:29.287Z,1.02
2023-01-29T03:15:42.474Z,0.97
2023-01-29T03:18:56.247Z,0.94
2023-01-29T03:22:05.682Z,0.88
2023-01-29T03:25:29.604Z,0.84
2023-01-29T03:28:52.803Z,0.84
2023-01-29T03:32:05.595Z,0.80
2023-01-29T03:35:21.036Z,0.74
2023-01-29T03:38:29.736Z,0.73
2023-01-29T03:41:39.672Z,0.68
2023-01-29T03:44:58.627Z,0.65
2023-01-29T03:48:12.286Z,0.60
2023-01-29T03:51:29.667Z,0.59
2023-01-29T03:54:50.294Z,0.61
2023-01-29T03:58:02.129Z,0.58
2023-01-29T04:01:16.154Z,0.57
2023-01-29T04:04:27.837Z,0.60
2023-01-29T04:07:36.658Z,0.54
2023-01-29T04:10:44.402Z,0.54
2023-01-29T04:13:49.592Z,0.54
2023-01-29T04:16:59.052Z,0.55
2023-01-29T04:20:03.809Z,0.50
2023-01-29T04:23:21.910Z,0.49
2023-01-29T04:26:48.288Z,0.49
2023-01-29T04:30:15.173Z,0.46
2023-01-29T04:33:35.508Z,0.45
2023-01-29T04:36:55.700Z,0.45
2023-01-29T04:40:15.229Z,0.39
2023-01-29T04:43:29.739Z,0.40
2023-01-29T04:46:48.769Z,0.36
2023-01-29T04:50:05.465Z,0.34
2023-01-29T04:53:19.790Z,0.31
2023-01-29T04:56:35.110Z,0.34
2023-01-29T04:59:49.494Z,0.38
2023-01-29T05:02:54.562Z,0.40
2023-01-29T05:06:03.271Z,0.41
2023-01-29T05:09:07.687Z,0.41
2023-01-29T05:12:15.632Z,0.46
2023-01-29T05:15:25.836Z,0.48
2023-01-29T05:18:30.927Z,0.47
2023-01-29T05:21:34.500Z,0.48
2023-01-29T05:24:38.684Z,0.51
2023-01-29T05:28:01.418Z,0.54
2023-01-29T05:31:05.171Z,0.60
2023-01-29T05:34:08.982Z,0.64
2023-01-29T05:37:12.643Z,0.69
2023-01-29T05:40:16.962Z,0.73
2023-01-29T05:43:24.635Z,0.80
2023-01-29T05:46:28.256Z,0.88
2023-01-29T05:49:32.104Z,0.85
2023-01-29T05:52:35.843Z,0.94
2023-01-29T05:55:39.637Z,0.93
2023-01-29T05:58:44.794Z,0.93
2023-01-29T06:01:48.397Z,0.94
2023-01-29T06:04:53.121Z,0.94
2023-01-29T06:07:56.944Z,0.90
2023-01-29T06:11:00.696Z,0.90
2023-01-29T06:14:06.045Z,0.87
2023-01-29T06:17:09.778Z,0.89
2023-01-29T06:20:15.273Z,0.90
2023-01-29T06:23:19.115Z,0.91
2023-01-29T06:26:22.866Z,0.89
2023-01-29T06:29:27.972Z,0.91
2023-01-29T06:32:31.900Z,0.93
2023-01-29T06:35:35.645Z,0.93
2023-01-29T06:38:39.299Z,0.92
2023-01-29T06:41:43.065Z,0.94
2023-01-29T06:44:48.034Z,0.96
2023-01-29T06:47:51.635Z,0.99
2023-01-29T06:50:55.417Z,1.02
2023-01-29T06:53:59.100Z,1.05
2023-01-29T06:57:02.975Z,1.04
2023-01-29T07:00:11.262Z,1.06
2023-01-29T07:03:15.385Z,1.09
2023-01-29T07:06:19.333Z,1.12
2023-01-29T07:09:22.908Z,1.13
2023-01-29T07:12:26.552Z,1.15
2023-01-29T07:15:31.535Z,1.17
2023-01-29T07:18:35.248Z,1.18
2023-01-29T07:21:39.339Z,1.19
2023-01-29T07:24:44.692Z,1.23
2023-01-29T07:27:48.853Z,1.22
2023-01-29T07:30:58.408Z,1.20
2023-01-29T07:34:02.193Z,1.22
2023-01-29T07:37:06.355Z,1.19
2023-01-29T07:40:11.960Z,1.19
2023-01-29T07:43:17.205Z,1.22
2023-01-29T07:46:22.372Z,1.20
2023-01-29T07:49:26.208Z,1.22
2023-01-29T07:52:32.225Z,1.27
2023-01-29T07:55:45.425Z,1.26
2023-01-29T07:58:49.731Z,1.33
2023-01-29T08:01:54.856Z,1.37
2023-01-29T08:04:58.599Z,1.37
2023-01-29T08:08:06.942Z,1.41
2023-01-29T08:11:11.372Z,1.40
2023-01-29T08:14:15.028Z,1.45
2023-01-29T08:17:20.083Z,1.46
2023-01-29T08:20:24.576Z,1.48
2023-01-29T08:23:28.530Z,1.57
2023-01-29T08:26:32.140Z,1.57
2023-01-29T08:29:36.120Z,1.64
2023-01-29T08:32:41.431Z,1.84
2023-01-29T08:35:45.652Z,1.86
2023-01-29T08:38:49.231Z,1.88
2023-01-29T08:41:52.894Z,1.87
2023-01-29T08:44:56.530Z,1.93
2023-01-29T08:48:01.502Z,1.87
2023-01-29T08:51:05.757Z,1.92
2023-01-29T08:54:09.576Z,1.84
2023-01-29T08:57:13.140Z,1.93
2023-01-29T09:00:18.461Z,1.91
2023-01-29T09:03:23.663Z,1.86
2023-01-29T09:06:27.325Z,1.94
2023-01-29T09:09:30.965Z,1.91
2023-01-29T09:12:34.884Z,1.95
2023-01-29T09:15:38.580Z,1.95
2023-01-29T09:18:43.692Z,1.91
2023-01-29T09:21:47.497Z,1.96
2023-01-29T09:24:51.091Z,2.05
2023-01-29T09:27:55.994Z,2.05
2023-01-29T09:31:03.678Z,2.06
2023-01-29T09:34:08.932Z,2.09
2023-01-29T09:37:12.695Z,2.13
2023-01-29T09:40:27.153Z,2.14
2023-01-29T09:43:47.073Z,2.16
2023-01-29T09:46:56.195Z,2.13
2023-01-29T09:50:06.836Z,2.19
2023-01-29T09:53:21.303Z,2.13
2023-01-29T09:56:29.039Z,2.12
2023-01-29T09:59:33.901Z,2.15
2023-01-29T10:06:34.813Z,2.13
2023-01-29T10:10:09.577Z,2.21
2023-01-29T10:13:25.824Z,2.20
2023-01-29T10:16:47.300Z,2.23
2023-01-29T10:20:28.874Z,2.35
2023-01-29T10:23:38.620Z,2.35
2023-01-29T10:26:42.832Z,2.39
2023-01-29T10:29:52.180Z,2.41
2023-01-29T10:33:00.757Z,2.47
2023-01-29T10:36:12.549Z,2.47
2023-01-29T10:39:21.774Z,2.46
2023-01-29T10:42:35.833Z,2.63
2023-01-29T10:45:49.593Z,2.64
2023-01-29T10:49:06.534Z,2.64
2023-01-29T10:52:26.465Z,2.72
2023-01-29T10:55:53.416Z,2.74
2023-01-29T10:59:05.488Z,2.73
2023-01-29T11:02:19.871Z,2.90
2023-01-29T11:05:37.557Z,2.75
2023-01-29T11:08:50.523Z,2.82
2023-01-29T11:12:01.753Z,2.81
2023-01-29T11:15:17.359Z,2.92
2023-01-29T11:18:20.954Z,2.99
2023-01-29T11:21:27.100Z,3.00
2023-01-29T11:24:30.921Z,3.05
2023-01-29T11:27:45.814Z,3.13
2023-01-29T11:30:52.106Z,3.26
2023-01-29T11:34:06.611Z,3.06
2023-01-29T11:37:18.898Z,3.07
2023-01-29T11:40:40.738Z,2.98
2023-01-29T11:43:45.886Z,3.02
2023-01-29T11:46:51.424Z,2.95
2023-01-29T11:49:57.932Z,3.03
2023-01-29T11:53:03.102Z,3.05
2023-01-29T11:56:21.916Z,3.08
2023-01-29T11:59:44.338Z,3.05
2023-01-29T12:02:54.247Z,3.07
2023-01-29T12:06:02.317Z,3.01
2023-01-29T12:09:17.065Z,3.07
2023-01-29T12:12:37.104Z,2.99
2023-01-29T12:15:44.668Z,3.04
2023-01-29T12:18:56.638Z,3.11
2023-01-29T12:22:07.309Z,2.96
2023-01-29T12:25:27.596Z,3.07
2023-01-29T12:28:50.123Z,3.15
2023-01-29T12:32:08.734Z,3.14
2023-01-29T12:35:23.771Z,3.08
2023-01-29T12:38:27.588Z,3.04
2023-01-29T12:41:41.536Z,3.08
2023-01-29T12:44:50.050Z,3.17
2023-01-29T12:48:00.711Z,3.14
2023-01-29T12:51:12.923Z,3.08
2023-01-29T12:54:24.815Z,3.14
2023-01-29T12:57:44.017Z,3.06
2023-01-29T13:00:52.583Z,3.06
2023-01-29T13:04:06.426Z,3.02
2023-01-29T13:07:19.038Z,3.03
2023-01-29T13:10:29.925Z,3.00
2023-01-29T13:13:44.324Z,3.08
2023-01-29T13:16:54.601Z,3.12
2023-01-29T13:20:12.391Z,3.09
2023-01-29T13:23:23.423Z,3.00
2023-01-29T13:26:28.149Z,3.09
2023-01-29T13:29:34.035Z,3.07
2023-01-29T13:32:38.827Z,3.20
2023-01-29T13:35:47.815Z,3.06
2023-01-29T13:39:02.294Z,3.02
2023-01-29T13:42:20.441Z,2.99
2023-01-29T13:45:29.694Z,2.98
2023-01-29T13:48:39.909Z,2.95
2023-01-29T13:51:45.163Z,2.90
2023-01-29T13:54:58.536Z,2.85
2023-01-29T13:58:03.362Z,2.80
2023-01-29T14:01:07.098Z,2.73
2023-01-29T14:04:32.803Z,2.75
2023-01-29T14:07:53.198Z,2.71
2023-01-29T14:11:36.804Z,2.76
2023-01-29T14:15:05.411Z,2.71
2023-01-29T14:18:28.823Z,2.70
2023-01-29T14:21:36.190Z,2.66
2023-01-29T14:24:45.264Z,2.74
2023-01-29T14:27:50.307Z,2.65
2023-01-29T14:30:55.341Z,2.66
2023-01-29T14:34:04.576Z,2.63
2023-01-29T14:37:30.268Z,2.61
2023-01-29T14:40:37.351Z,2.58
2023-01-29T14:43:41.672Z,2.51
2023-01-29T14:46:46.780Z,2.50
2023-01-29T14:49:55.518Z,2.51
2023-01-29T14:53:08.854Z,2.51
2023-01-29T14:56:29.917Z,2.54
2023-01-29T14:59:40.166Z,2.54
2023-01-29T15:02:46.612Z,2.57
2023-01-29T15:05:54.736Z,2.45
2023-01-29T15:09:13.374Z,2.40
2023-01-29T15:12:29.297Z,2.37
2023-01-29T15:15:40.250Z,2.23
2023-01-29T15:18:45.411Z,2.26
2023-01-29T15:22:09.538Z,2.21
2023-01-29T15:25:19.545Z,2.14
2023-01-29T15:28:25.807Z,2.09
2023-01-29T15:31:30.518Z,2.03
2023-01-29T15:34:36.049Z,2.07
2023-01-29T15:37:41.801Z,2.00
2023-01-29T15:40:54.112Z,2.03
2023-01-29T15:44:02.154Z,1.96
2023-01-29T15:47:07.710Z,1.86
2023-01-29T15:50:15.366Z,1.85
2023-01-29T15:53:25.258Z,1.75
2023-01-29T15:56:35.346Z,1.76
2023-01-29T15:59:51.691Z,1.75
2023-01-29T16:02:55.989Z,1.71
2023-01-29T16:06:01.102Z,1.63
2023-01-29T16:09:08.653Z,1.60
2023-01-29T16:12:14.961Z,1.60
2023-01-29T16:15:36.847Z,1.63
2023-01-29T16:18:57.893Z,1.49
2023-01-29T16:22:06.928Z,1.51
2023-01-29T16:25:17.626Z,1.51
2023-01-29T16:28:21.760Z,1.53
2023-01-29T16:31:33.032Z,1.50
2023-01-29T16:34:39.776Z,1.52
2023-01-29T16:37:48.500Z,1.54
2023-01-29T16:41:14.842Z,1.52
2023-01-29T16:44:37.539Z,1.51
2023-01-29T16:47:42.856Z,1.53
2023-01-29T16:50:55.086Z,1.58
2023-01-29T16:54:02.717Z,1.59
2023-01-29T16:57:06.352Z,1.53
2023-01-29T17:00:22.157Z,1.59
2023-01-29T17:03:29.539Z,1.54
2023-01-29T17:06:34.642Z,1.47
2023-01-29T17:09:40.194Z,1.42
2023-01-29T17:12:54.220Z,1.42
2023-01-29T17:16:04.181Z,1.41
2023-01-29T17:19:21.689Z,1.39
2023-01-29T17:22:25.953Z,1.34
2023-01-29T17:25:31.158Z,1.33
2023-01-29T17:28:35.725Z,1.28
2023-01-29T17:31:39.591Z,1.30
2023-01-29T17:34:45.197Z,1.27
2023-01-29T17:37:49.197Z,1.29
2023-01-29T17:40:58.793Z,1.29
2023-01-29T17:44:02.556Z,1.27
2023-01-29T17:47:08.027Z,1.28
2023-01-29T17:50:23.484Z,1.29
2023-01-29T17:53:39.800Z,1.28
2023-01-29T17:56:48.666Z,1.29
2023-01-29T17:59:53.303Z,1.27
2023-01-29T18:03:01.012Z,1.28
2023-01-29T18:06:10.167Z,1.27
2023-01-29T18:09:15.900Z,1.32
2023-01-29T18:12:19.709Z,1.29
2023-01-29T18:15:23.849Z,1.28
2023-01-29T18:18:29.417Z,1.33
2023-01-29T18:21:34.610Z,1.34
2023-01-29T18:24:38.356Z,1.34
2023-01-29T18:27:42.110Z,1.34
2023-01-29T18:30:47.839Z,1.40
2023-01-29T18:33:51.672Z,1.37
2023-01-29T18:36:57.303Z,1.42
2023-01-29T18:40:01.842Z,1.43
2023-01-29T18:43:06.023Z,1.42
2023-01-29T18:46:11.067Z,1.46
2023-01-29T18:49:15.410Z,1.49
2023-01-29T18:52:20.702Z,1.46
2023-01-29T18:55:26.636Z,1.49
2023-01-29T18:58:36.804Z,1.50
2023-01-29T19:01:40.710Z,1.53
2023-01-29T19:04:44.902Z,1.53
2023-01-29T19:07:50.054Z,1.52
2023-01-29T19:10:53.980Z,1.53
2023-01-29T19:13:58.436Z,1.49
2023-01-29T19:17:03.090Z,1.49
2023-01-29T19:20:09.649Z,1.49
2023-01-29T19:23:14.938Z,1.50
2023-01-29T19:26:19.260Z,1.52
2023-01-29T19:29:23.444Z,1.52
2023-01-29T19:32:28.872Z,1.51
2023-01-29T19:35:33.510Z,1.54
2023-01-29T19:38:39.883Z,1.58
2023-01-29T19:41:44.006Z,1.59
2023-01-29T19:44:47.838Z,1.63
2023-01-29T19:47:51.481Z,1.65
2023-01-29T19:50:57.316Z,1.63
2023-01-29T19:54:02.544Z,1.67
2023-01-29T19:57:07.538Z,1.70
2023-01-29T20:00:14.743Z,1.75
2023-01-29T20:03:18.302Z,1.79
2023-01-29T20:06:26.832Z,1.81
2023-01-29T20:09:31.957Z,1.80
2023-01-29T20:12:35.633Z,1.84
2023-01-29T20:15:46.908Z,1.84
2023-01-29T20:18:50.826Z,1.84
2023-01-29T20:21:54.654Z,1.86
2023-01-29T20:24:59.781Z,1.88
2023-01-29T20:28:03.489Z,1.92
2023-01-29T20:31:09.329Z,1.92
2023-01-29T20:34:12.975Z,1.94
2023-01-29T20:37:16.673Z,1.93
2023-01-29T20:40:22.106Z,1.97
2023-01-29T20:43:26.039Z,1.96
2023-01-29T20:46:30.048Z,2.00
2023-01-29T20:49:33.733Z,2.01
2023-01-29T20:52:38.067Z,2.03
2023-01-29T20:55:43.516Z,2.04
2023-01-29T20:58:47.724Z,2.07
2023-01-29T21:01:51.434Z,2.05
2023-01-29T21:04:55.090Z,2.05
2023-01-29T21:07:58.761Z,2.09
2023-01-29T21:11:04.175Z,2.08
2023-01-29T21:14:08.012Z,2.09
2023-01-29T21:17:11.678Z,2.04
2023-01-29T21:20:16.062Z,2.05
2023-01-29T21:23:20.368Z,2.09
2023-01-29T21:26:26.041Z,2.12
2023-01-29T21:29:29.686Z,2.12
2023-01-29T21:32:33.817Z,2.14
2023-01-29T21:35:38.480Z,2.12
2023-01-29T21:38:42.394Z,2.06
2023-01-29T21:42:06.833Z,2.05
2023-01-29T21:45:12.055Z,2.03
2023-01-29T21:48:20.011Z,2.03
2023-01-29T21:51:23.895Z,2.09
2023-01-29T21:54:31.129Z,2.05
2023-01-29T21:57:36.334Z,2.02
2023-01-29T22:00:43.239Z,2.06
2023-01-29T22:03:47.620Z,2.05
2023-01-29T22:06:51.389Z,2.05
2023-01-29T22:09:55.089Z,2.05
2023-01-29T22:13:02.050Z,2.00
2023-01-29T22:16:07.042Z,1.99
2023-01-29T22:19:10.704Z,1.95
2023-01-29T22:22:15.717Z,1.93
2023-01-29T22:25:20.166Z,1.93
2023-01-29T22:28:25.189Z,1.94
2023-01-29T22:31:28.794Z,1.91
2023-01-29T22:34:32.632Z,1.88
2023-01-29T22:37:36.238Z,1.90
2023-01-29T22:40:40.103Z,1.91
2023-01-29T22:43:45.119Z,1.92
2023-01-29T22:46:49.010Z,1.95
2023-01-29T22:49:52.637Z,1.99
2023-01-29T22:52:56.440Z,2.04
2023-01-29T22:56:00.429Z,2.05
2023-01-29T22:59:05.529Z,2.07
2023-01-29T23:02:10.545Z,2.14
2023-01-29T23:05:14.218Z,2.14
2023-01-29T23:08:17.852Z,2.16
2023-01-29T23:11:23.845Z,2.18
2023-01-29T23:14:28.935Z,2.24
2023-01-29T23:17:32.572Z,2.23
2023-01-29T23:20:36.361Z,2.23
2023-01-29T23:23:43.113Z,2.28
2023-01-29T23:27:05.636Z,2.27
2023-01-29T23:30:12.514Z,2.30
2023-01-29T23:33:16.233Z,2.32
2023-01-29T23:36:19.989Z,2.35
2023-01-29T23:39:23.838Z,2.39
2023-01-29T23:42:27.479Z,2.39
2023-01-29T23:45:36.047Z,2.41
2023-01-29T23:48:39.690Z,2.45
2023-01-29T23:51:43.404Z,2.50
2023-01-29T23:54:47.030Z,2.49
2023-01-29T23:57:50.629Z,2.53
